sensor_id;sensor_type;location;lat;lon;timestamp;pressure;altitude;pressure_sealevel;temperature;humidity
11114;BME280;5610;52.154;9.198;2023-01-29T00:02:42;102062.59;;;1.32;100.00
11114;BME280;5610;52.154;9.198;2023-01-29T00:05:27;102059.13;;;1.35;100.00
11114;BME280;5610;52.154;9.198;2023-01-29T00:08:12;102055.59;;;1.37;100.00
11114;BME280;5610;52.154;9.198;2023-01-29T00:11:00;102048.59;;;1.38;100.00
11114;BME280;5610;52.154;9.198;2023-01-29T00:13:45;102050.34;;;1.37;100.00
11114;BME280;5610;52.154;9.198;2023-01-29T00:16:32;102058.22;;;1.39;100.00
11114;BME280;5610;52.154;9.198;2023-01-29T00:19:18;102062.63;;;1.43;100.00
11114;BME280;5610;52.154;9.198;2023-01-29T00:22:04;102050.34;;;1.45;100.00
11114;BME280;5610;52.154;9.198;2023-01-29T00:24:49;102048.59;;;1.44;100.00
11114;BME280;5610;52.154;9.198;2023-01-29T00:27:34;102039.84;;;1.44;100.00
11114;BME280;5610;52.154;9.198;2023-01-29T00:30:21;102037.22;;;1.44;100.00
11114;BME280;5610;52.154;9.198;2023-01-29T00:33:09;102030.22;;;1.43;100.00
11114;BME280;5610;52.154;9.198;2023-01-29T00:35:54;102031.94;;;1.47;100.00
11114;BME280;5610;52.154;9.198;2023-01-29T00:38:40;102024.94;;;1.46;100.00
11114;BME280;5610;52.154;9.198;2023-01-29T00:41:26;102038.94;;;1.48;100.00
11114;BME280;5610;52.154;9.198;2023-01-29T00:44:30;102035.47;;;1.50;100.00
11114;BME280;5610;52.154;9.198;2023-01-29T00:47:33;102031.94;;;1.51;100.00
11114;BME280;5610;52.154;9.198;2023-01-29T00:50:20;102041.56;;;1.52;100.00
11114;BME280;5610;52.154;9.198;2023-01-29T00:53:05;102039.84;;;1.48;100.00
11114;BME280;5610;52.154;9.198;2023-01-29T00:55:50;102030.22;;;1.50;100.00
11114;BME280;5610;52.154;9.198;2023-01-29T00:58:36;102036.31;;;1.52;100.00
11114;BME280;5610;52.154;9.198;2023-01-29T01:01:22;102039.81;;;1.54;100.00
11114;BME280;5610;52.154;9.198;2023-01-29T01:04:22;102038.97;;;1.55;100.00
11114;BME280;5610;52.154;9.198;2023-01-29T01:07:08;102044.22;;;1.57;100.00
11114;BME280;5610;52.154;9.198;2023-01-29T01:09:54;102045.06;;;1.57;100.00
11114;BME280;5610;52.154;9.198;2023-01-29T01:12:58;102029.31;;;1.57;100.00
11114;BME280;5610;52.154;9.198;2023-01-29T01:15:44;102025.81;;;1.57;100.00
11114;BME280;5610;52.154;9.198;2023-01-29T01:18:29;102021.44;;;1.53;100.00
11114;BME280;5610;52.154;9.198;2023-01-29T01:21:15;102017.06;;;1.50;100.00
11114;BME280;5610;52.154;9.198;2023-01-29T01:24:02;102024.09;;;1.50;100.00
11114;BME280;5610;52.154;9.198;2023-01-29T01:26:49;102003.97;;;1.43;100.00
11114;BME280;5610;52.154;9.198;2023-01-29T01:29:34;102001.31;;;1.52;100.00
11114;BME280;5610;52.154;9.198;2023-01-29T01:32:19;102005.72;;;1.36;100.00
11114;BME280;5610;52.154;9.198;2023-01-29T01:35:06;102008.34;;;1.34;100.00
11114;BME280;5610;52.154;9.198;2023-01-29T01:37:52;101989.94;;;1.42;100.00
11114;BME280;5610;52.154;9.198;2023-01-29T01:40:43;101986.44;;;1.42;100.00
11114;BME280;5610;52.154;9.198;2023-01-29T01:43:48;101989.91;;;1.51;100.00
11114;BME280;5610;52.154;9.198;2023-01-29T01:46:36;101995.19;;;1.45;100.00
11114;BME280;5610;52.154;9.198;2023-01-29T01:49:22;101991.66;;;1.52;100.00
11114;BME280;5610;52.154;9.198;2023-01-29T01:52:08;102001.31;;;1.52;100.00
11114;BME280;5610;52.154;9.198;2023-01-29T01:54:54;101989.91;;;1.57;100.00
11114;BME280;5610;52.154;9.198;2023-01-29T01:57:42;101988.13;;;1.61;100.00
11114;BME280;5610;52.154;9.198;2023-01-29T02:00:29;101994.25;;;1.68;100.00
11114;BME280;5610;52.154;9.198;2023-01-29T02:03:16;101984.59;;;1.68;100.00
11114;BME280;5610;52.154;9.198;2023-01-29T02:06:21;101988.97;;;1.72;100.00
11114;BME280;5610;52.154;9.198;2023-01-29T02:09:29;101986.34;;;1.74;100.00
11114;BME280;5610;52.154;9.198;2023-01-29T02:12:15;101998.63;;;1.76;100.00
11114;BME280;5610;52.154;9.198;2023-01-29T02:15:03;102002.97;;;1.77;100.00
11114;BME280;5610;52.154;9.198;2023-01-29T02:17:49;102001.22;;;1.79;100.00
11114;BME280;5610;52.154;9.198;2023-01-29T02:20:34;101995.09;;;1.79;100.00
11114;BME280;5610;52.154;9.198;2023-01-29T02:23:42;101994.22;;;1.78;100.00
11114;BME280;5610;52.154;9.198;2023-01-29T02:26:49;102000.34;;;1.80;100.00
11114;BME280;5610;52.154;9.198;2023-01-29T02:29:52;101997.72;;;1.77;100.00
11114;BME280;5610;52.154;9.198;2023-01-29T02:32:44;102002.97;;;1.79;100.00
11114;BME280;5610;52.154;9.198;2023-01-29T02:35:41;102010.84;;;1.79;100.00
11114;BME280;5610;52.154;9.198;2023-01-29T02:38:31;102006.47;;;1.79;100.00
11114;BME280;5610;52.154;9.198;2023-01-29T02:41:25;102006.47;;;1.81;100.00
11114;BME280;5610;52.154;9.198;2023-01-29T02:44:19;102013.47;;;1.82;100.00
11114;BME280;5610;52.154;9.198;2023-01-29T02:47:15;102016.97;;;1.82;100.00
11114;BME280;5610;52.154;9.198;2023-01-29T02:50:07;102018.75;;;1.83;100.00
11114;BME280;5610;52.154;9.198;2023-01-29T02:52:59;102023.09;;;1.84;100.00
11114;BME280;5610;52.154;9.198;2023-01-29T02:55:50;102027.44;;;1.90;100.00
11114;BME280;5610;52.154;9.198;2023-01-29T02:58:40;102021.34;;;1.91;100.00
11114;BME280;5610;52.154;9.198;2023-01-29T03:01:30;102017.84;;;1.90;100.00
11114;BME280;5610;52.154;9.198;2023-01-29T03:04:21;102016.94;;;1.91;100.00
11114;BME280;5610;52.154;9.198;2023-01-29T03:07:14;102020.44;;;1.93;100.00
11114;BME280;5610;52.154;9.198;2023-01-29T03:10:23;102002.91;;;1.96;100.00
11114;BME280;5610;52.154;9.198;2023-01-29T03:13:14;102006.41;;;1.96;100.00
11114;BME280;5610;52.154;9.198;2023-01-29T03:16:05;101996.75;;;1.95;100.00
11114;BME280;5610;52.154;9.198;2023-01-29T03:19:01;101998.53;;;1.95;100.00
11114;BME280;5610;52.154;9.198;2023-01-29T03:21:53;101993.25;;;1.95;100.00
11114;BME280;5610;52.154;9.198;2023-01-29T03:24:46;101983.63;;;1.93;100.00
11114;BME280;5610;52.154;9.198;2023-01-29T03:27:55;101990.66;;;1.93;100.00
11114;BME280;5610;52.154;9.198;2023-01-29T03:31:04;101984.56;;;1.83;100.00
11114;BME280;5610;52.154;9.198;2023-01-29T03:34:16;101976.63;;;1.89;100.00
11114;BME280;5610;52.154;9.198;2023-01-29T03:37:10;101980.13;;;1.95;100.00
11114;BME280;5610;52.154;9.198;2023-01-29T03:40:00;101971.38;;;1.92;100.00
11114;BME280;5610;52.154;9.198;2023-01-29T03:42:55;101970.50;;;1.93;100.00
11114;BME280;5610;52.154;9.198;2023-01-29T03:45:52;101981.84;;;2.02;100.00
11114;BME280;5610;52.154;9.198;2023-01-29T03:48:46;101975.72;;;2.01;100.00
11114;BME280;5610;52.154;9.198;2023-01-29T03:51:41;101976.56;;;2.06;100.00
11114;BME280;5610;52.154;9.198;2023-01-29T03:54:40;101975.69;;;2.07;100.00
11114;BME280;5610;52.154;9.198;2023-01-29T03:57:33;101961.63;;;2.10;100.00
11114;BME280;5610;52.154;9.198;2023-01-29T04:00:26;101949.34;;;2.10;100.00
11114;BME280;5610;52.154;9.198;2023-01-29T04:03:20;101953.88;;;1.91;100.00
11114;BME280;5610;52.154;9.198;2023-01-29T04:06:11;101962.56;;;2.03;100.00
11114;BME280;5610;52.154;9.198;2023-01-29T04:09:10;101952.00;;;2.09;100.00
11114;BME280;5610;52.154;9.198;2023-01-29T04:12:03;101948.47;;;2.11;100.00
11114;BME280;5610;52.154;9.198;2023-01-29T04:14:54;101942.38;;;2.12;100.00
11114;BME280;5610;52.154;9.198;2023-01-29T04:17:44;101943.22;;;2.13;100.00
11114;BME280;5610;52.154;9.198;2023-01-29T04:20:39;101936.19;;;2.15;100.00
11114;BME280;5610;52.154;9.198;2023-01-29T04:23:25;101922.16;;;2.17;100.00
11114;BME280;5610;52.154;9.198;2023-01-29T04:26:23;101918.66;;;2.15;100.00
11114;BME280;5610;52.154;9.198;2023-01-29T04:29:19;101908.16;;;2.14;100.00
11114;BME280;5610;52.154;9.198;2023-01-29T04:32:13;101903.78;;;2.11;100.00
11114;BME280;5610;52.154;9.198;2023-01-29T04:35:09;101884.50;;;2.11;100.00
11114;BME280;5610;52.154;9.198;2023-01-29T04:38:07;101885.38;;;2.11;100.00
11114;BME280;5610;52.154;9.198;2023-01-29T04:41:01;101883.66;;;2.09;100.00
11114;BME280;5610;52.154;9.198;2023-01-29T04:43:57;101871.38;;;2.08;100.00
11114;BME280;5610;52.154;9.198;2023-01-29T04:46:49;101879.28;;;2.06;100.00
11114;BME280;5610;52.154;9.198;2023-01-29T04:49:44;101880.13;;;2.10;100.00
11114;BME280;5610;52.154;9.198;2023-01-29T04:52:36;101871.38;;;2.12;100.00
11114;BME280;5610;52.154;9.198;2023-01-29T04:55:31;101857.34;;;2.10;100.00
11114;BME280;5610;52.154;9.198;2023-01-29T04:58:25;101859.94;;;2.15;100.00
11114;BME280;5610;52.154;9.198;2023-01-29T05:01:15;101858.19;;;2.15;100.00
11114;BME280;5610;52.154;9.198;2023-01-29T05:04:07;101865.19;;;2.15;100.00
11114;BME280;5610;52.154;9.198;2023-01-29T05:06:54;101866.94;;;2.16;100.00
11114;BME280;5610;52.154;9.198;2023-01-29T05:09:42;101852.91;;;2.18;100.00
11114;BME280;5610;52.154;9.198;2023-01-29T05:12:29;101857.34;;;2.10;100.00
11114;BME280;5610;52.154;9.198;2023-01-29T05:15:23;101856.50;;;2.07;100.00
11114;BME280;5610;52.154;9.198;2023-01-29T05:18:10;101859.13;;;2.04;100.00
11114;BME280;5610;52.154;9.198;2023-01-29T05:21:00;101873.16;;;2.07;100.00
11114;BME280;5610;52.154;9.198;2023-01-29T05:24:05;101875.69;;;2.16;100.00
11114;BME280;5610;52.154;9.198;2023-01-29T05:26:52;101886.22;;;2.19;100.00
11114;BME280;5610;52.154;9.198;2023-01-29T05:29:55;101886.41;;;1.90;100.00
11114;BME280;5610;52.154;9.198;2023-01-29T05:32:40;101887.22;;;1.96;100.00
11114;BME280;5610;52.154;9.198;2023-01-29T05:35:26;101890.69;;;2.05;100.00
11114;BME280;5610;52.154;9.198;2023-01-29T05:38:13;101881.88;;;2.09;100.00
11114;BME280;5610;52.154;9.198;2023-01-29T05:40:58;101885.38;;;2.13;100.00
11114;BME280;5610;52.154;9.198;2023-01-29T05:43:44;101877.44;;;2.17;100.00
11114;BME280;5610;52.154;9.198;2023-01-29T05:46:29;101877.41;;;2.24;100.00
11114;BME280;5610;52.154;9.198;2023-01-29T05:49:15;101879.13;;;2.28;100.00
11114;BME280;5610;52.154;9.198;2023-01-29T05:52:03;101895.75;;;2.31;100.00
11114;BME280;5610;52.154;9.198;2023-01-29T05:54:50;101898.38;;;2.34;100.00
11114;BME280;5610;52.154;9.198;2023-01-29T05:57:35;101894.84;;;2.40;100.00
11114;BME280;5610;52.154;9.198;2023-01-29T06:00:21;101885.19;;;2.40;100.00
11114;BME280;5610;52.154;9.198;2023-01-29T06:03:07;101885.16;;;2.42;100.00
11114;BME280;5610;52.154;9.198;2023-01-29T06:05:52;101889.53;;;2.43;100.00
11114;BME280;5610;52.154;9.198;2023-01-29T06:08:37;101900.03;;;2.44;100.00
11114;BME280;5610;52.154;9.198;2023-01-29T06:11:24;101910.56;;;2.47;100.00
11114;BME280;5610;52.154;9.198;2023-01-29T06:14:09;101900.00;;;2.51;100.00
11114;BME280;5610;52.154;9.198;2023-01-29T06:16:55;101903.50;;;2.54;100.00
11114;BME280;5610;52.154;9.198;2023-01-29T06:19:40;101893.84;;;2.55;100.00
11114;BME280;5610;52.154;9.198;2023-01-29T06:22:26;101888.56;;;2.52;100.00
11114;BME280;5610;52.154;9.198;2023-01-29T06:25:11;101886.97;;;2.32;100.00
11114;BME280;5610;52.154;9.198;2023-01-29T06:27:57;101886.88;;;2.44;100.00
11114;BME280;5610;52.154;9.198;2023-01-29T06:30:43;101898.28;;;2.48;100.00
11114;BME280;5610;52.154;9.198;2023-01-29T06:33:28;101898.22;;;2.53;100.00
11114;BME280;5610;52.154;9.198;2023-01-29T06:36:14;101891.28;;;2.47;100.00
11114;BME280;5610;52.154;9.198;2023-01-29T06:39:03;101891.19;;;2.56;100.00
11114;BME280;5610;52.154;9.198;2023-01-29T06:41:50;101885.88;;;2.59;100.00
11114;BME280;5610;52.154;9.198;2023-01-29T06:44:37;101878.81;;;2.64;100.00
11114;BME280;5610;52.154;9.198;2023-01-29T06:47:22;101889.38;;;2.63;100.00
11114;BME280;5610;52.154;9.198;2023-01-29T06:50:09;101889.31;;;2.67;100.00
11114;BME280;5610;52.154;9.198;2023-01-29T06:52:54;101891.03;;;2.71;100.00
11114;BME280;5610;52.154;9.198;2023-01-29T06:55:40;101887.53;;;2.71;100.00
11114;BME280;5610;52.154;9.198;2023-01-29T06:58:25;101891.94;;;2.69;100.00
11114;BME280;5610;52.154;9.198;2023-01-29T07:01:12;101899.91;;;2.63;100.00
11114;BME280;5610;52.154;9.198;2023-01-29T07:03:57;101896.31;;;2.71;100.00
11114;BME280;5610;52.154;9.198;2023-01-29T07:06:43;101902.38;;;2.78;100.00
11114;BME280;5610;52.154;9.198;2023-01-29T07:09:28;101912.03;;;2.78;100.00
11114;BME280;5610;52.154;9.198;2023-01-29T07:12:14;101919.91;;;2.79;100.00
11114;BME280;5610;52.154;9.198;2023-01-29T07:14:59;101911.16;;;2.79;100.00
11114;BME280;5610;52.154;9.198;2023-01-29T07:17:56;101925.16;;;2.84;100.00
11114;BME280;5610;52.154;9.198;2023-01-29T07:20:42;101918.09;;;2.87;100.00
11114;BME280;5610;52.154;9.198;2023-01-29T07:23:27;101905.84;;;2.85;100.00
11114;BME280;5610;52.154;9.198;2023-01-29T07:26:13;101901.41;;;2.87;100.00
11114;BME280;5610;52.154;9.198;2023-01-29T07:28:58;101893.53;;;2.85;100.00
11114;BME280;5610;52.154;9.198;2023-01-29T07:31:44;101907.75;;;2.69;100.00
11114;BME280;5610;52.154;9.198;2023-01-29T07:34:30;101914.66;;;2.82;100.00
11114;BME280;5610;52.154;9.198;2023-01-29T07:37:15;101917.44;;;2.64;100.00
11114;BME280;5610;52.154;9.198;2023-01-29T07:40:01;101899.84;;;2.70;100.00
11114;BME280;5610;52.154;9.198;2023-01-29T07:42:48;101897.13;;;2.78;100.00
11114;BME280;5610;52.154;9.198;2023-01-29T07:45:34;101878.88;;;2.61;100.00
11114;BME280;5610;52.154;9.198;2023-01-29T07:48:20;101874.66;;;2.39;100.00
11114;BME280;5610;52.154;9.198;2023-01-29T07:51:06;101877.34;;;2.30;100.00
11114;BME280;5610;52.154;9.198;2023-01-29T07:53:52;101892.38;;;2.14;100.00
11114;BME280;5610;52.154;9.198;2023-01-29T07:56:37;101888.78;;;2.29;100.00
11114;BME280;5610;52.154;9.198;2023-01-29T07:59:22;101879.84;;;2.46;100.00
11114;BME280;5610;52.154;9.198;2023-01-29T08:02:08;101859.63;;;2.53;100.00
11114;BME280;5610;52.154;9.198;2023-01-29T08:04:53;101856.84;;;2.67;100.00
11114;BME280;5610;52.154;9.198;2023-01-29T08:07:40;101846.25;;;2.74;100.00
11114;BME280;5610;52.154;9.198;2023-01-29T08:10:26;101841.78;;;2.84;100.00
11114;BME280;5610;52.154;9.198;2023-01-29T08:13:11;101844.47;;;2.78;100.00
11114;BME280;5610;52.154;9.198;2023-01-29T08:15:58;101839.03;;;2.95;100.00
11114;BME280;5610;52.154;9.198;2023-01-29T08:18:43;101818.94;;;2.86;100.00
11114;BME280;5610;52.154;9.198;2023-01-29T08:21:31;101826.59;;;3.11;100.00
11114;BME280;5610;52.154;9.198;2023-01-29T08:24:17;101832.75;;;3.07;100.00
11114;BME280;5610;52.154;9.198;2023-01-29T08:27:03;101830.25;;;2.97;100.00
11114;BME280;5610;52.154;9.198;2023-01-29T08:29:48;101830.53;;;2.70;100.00
11114;BME280;5610;52.154;9.198;2023-01-29T08:32:33;101835.72;;;2.76;100.00
11114;BME280;5610;52.154;9.198;2023-01-29T08:35:19;101842.56;;;2.94;100.00
11114;BME280;5610;52.154;9.198;2023-01-29T08:38:04;101845.28;;;2.85;100.00
11114;BME280;5610;52.154;9.198;2023-01-29T08:40:51;101840.75;;;2.96;100.00
11114;BME280;5610;52.154;9.198;2023-01-29T08:43:36;101836.56;;;2.80;100.00
11114;BME280;5610;52.154;9.198;2023-01-29T08:46:22;101832.25;;;2.75;100.00
11114;BME280;5610;52.154;9.198;2023-01-29T08:49:08;101825.50;;;2.47;100.00
11114;BME280;5610;52.154;9.198;2023-01-29T08:51:53;101829.72;;;2.60;100.00
11114;BME280;5610;52.154;9.198;2023-01-29T08:54:39;101839.41;;;2.58;100.00
11114;BME280;5610;52.154;9.198;2023-01-29T08:57:26;101832.44;;;2.56;100.00
11114;BME280;5610;52.154;9.198;2023-01-29T09:00:12;101842.03;;;2.61;100.00
11114;BME280;5610;52.154;9.198;2023-01-29T09:02:58;101834.91;;;2.71;100.00
11114;BME280;5610;52.154;9.198;2023-01-29T09:05:43;101838.22;;;2.90;100.00
11114;BME280;5610;52.154;9.198;2023-01-29T09:08:29;101830.19;;;3.03;100.00
11114;BME280;5610;52.154;9.198;2023-01-29T09:11:15;101824.66;;;3.23;100.00
11114;BME280;5610;52.154;9.198;2023-01-29T09:14:01;101815.34;;;2.93;100.00
11114;BME280;5610;52.154;9.198;2023-01-29T09:16:47;101819.81;;;2.87;100.00
11114;BME280;5610;52.154;9.198;2023-01-29T09:19:32;101822.00;;;3.23;100.00
11114;BME280;5610;52.154;9.198;2023-01-29T09:22:17;101817.59;;;3.27;100.00
11114;BME280;5610;52.154;9.198;2023-01-29T09:25:03;101820.94;;;3.38;100.00
11114;BME280;5610;52.154;9.198;2023-01-29T09:27:49;101826.22;;;3.38;100.00
11114;BME280;5610;52.154;9.198;2023-01-29T09:30:35;101828.38;;;3.07;100.00
11114;BME280;5610;52.154;9.198;2023-01-29T09:33:21;101826.69;;;3.00;100.00
11114;BME280;5610;52.154;9.198;2023-01-29T09:36:08;101821.41;;;3.01;100.00
11114;BME280;5610;52.154;9.198;2023-01-29T09:38:53;101819.56;;;3.08;100.00
11114;BME280;5610;52.154;9.198;2023-01-29T09:41:49;101815.06;;;3.16;100.00
11114;BME280;5610;52.154;9.198;2023-01-29T09:44:50;101816.47;;;3.45;100.00
11114;BME280;5610;52.154;9.198;2023-01-29T09:47:39;101797.06;;;3.50;100.00
11114;BME280;5610;52.154;9.198;2023-01-29T09:50:29;101800.44;;;3.62;100.00
11114;BME280;5610;52.154;9.198;2023-01-29T09:53:19;101787.34;;;3.55;100.00
11114;BME280;5610;52.154;9.198;2023-01-29T09:56:11;101791.88;;;3.46;100.00
11114;BME280;5610;52.154;9.198;2023-01-29T09:58:58;101782.31;;;3.37;100.00
11114;BME280;5610;52.154;9.198;2023-01-29T10:01:49;101773.25;;;3.58;100.00
11114;BME280;5610;52.154;9.198;2023-01-29T10:04:50;101777.47;;;3.70;100.00
11114;BME280;5610;52.154;9.198;2023-01-29T10:08:01;101773.41;;;3.47;100.00
11114;BME280;5610;52.154;9.198;2023-01-29T10:10:50;101769.31;;;3.85;100.00
11114;BME280;5610;52.154;9.198;2023-01-29T10:13:43;101760.72;;;3.74;100.00
11114;BME280;5610;52.154;9.198;2023-01-29T10:16:40;101769.25;;;3.90;100.00
11114;BME280;5610;52.154;9.198;2023-01-29T10:19:37;101754.69;;;4.20;100.00
11114;BME280;5610;52.154;9.198;2023-01-29T10:22:40;101734.81;;;4.48;100.00
11114;BME280;5610;52.154;9.198;2023-01-29T10:25:32;101749.44;;;4.66;100.00
11114;BME280;5610;52.154;9.198;2023-01-29T10:28:24;101735.97;;;4.80;100.00
11114;BME280;5610;52.154;9.198;2023-01-29T10:31:17;101753.28;;;4.93;99.66
11114;BME280;5610;52.154;9.198;2023-01-29T10:34:10;101761.09;;;4.54;100.00
11114;BME280;5610;52.154;9.198;2023-01-29T10:36:57;101768.19;;;4.51;100.00
11114;BME280;5610;52.154;9.198;2023-01-29T10:39:44;101755.81;;;4.05;100.00
11114;BME280;5610;52.154;9.198;2023-01-29T10:42:32;101757.41;;;4.13;100.00
11114;BME280;5610;52.154;9.198;2023-01-29T10:45:29;101760.13;;;4.10;100.00
11114;BME280;5610;52.154;9.198;2023-01-29T10:48:37;101755.34;;;4.32;100.00
11114;BME280;5610;52.154;9.198;2023-01-29T10:51:35;101758.53;;;4.50;100.00
11114;BME280;5610;52.154;9.198;2023-01-29T10:54:36;101751.06;;;4.72;100.00
11114;BME280;5610;52.154;9.198;2023-01-29T10:57:41;101742.66;;;4.53;100.00
11114;BME280;5610;52.154;9.198;2023-01-29T11:00:34;101737.94;;;4.68;100.00
11114;BME280;5610;52.154;9.198;2023-01-29T11:03:23;101736.72;;;4.85;100.00
11114;BME280;5610;52.154;9.198;2023-01-29T11:06:15;101728.47;;;4.58;98.94
11114;BME280;5610;52.154;9.198;2023-01-29T11:09:06;101731.34;;;4.46;99.20
11114;BME280;5610;52.154;9.198;2023-01-29T11:11:56;101712.91;;;4.43;100.00
11114;BME280;5610;52.154;9.198;2023-01-29T11:14:48;101710.94;;;4.54;99.03
11114;BME280;5610;52.154;9.198;2023-01-29T11:17:34;101704.63;;;4.15;100.00
11114;BME280;5610;52.154;9.198;2023-01-29T11:20:25;101700.28;;;4.12;100.00
11114;BME280;5610;52.154;9.198;2023-01-29T11:23:25;101696.72;;;4.15;100.00
11114;BME280;5610;52.154;9.198;2023-01-29T11:26:12;101701.63;;;4.35;100.00
11114;BME280;5610;52.154;9.198;2023-01-29T11:29:00;101691.53;;;4.57;99.17
11114;BME280;5610;52.154;9.198;2023-01-29T11:31:47;101671.16;;;4.63;98.11
11114;BME280;5610;52.154;9.198;2023-01-29T11:34:32;101686.50;;;4.88;99.90
11114;BME280;5610;52.154;9.198;2023-01-29T11:37:18;101681.00;;;4.55;95.79
11114;BME280;5610;52.154;9.198;2023-01-29T11:40:28;101682.22;;;4.39;100.00
11114;BME280;5610;52.154;9.198;2023-01-29T11:43:22;101673.63;;;4.71;100.00
11114;BME280;5610;52.154;9.198;2023-01-29T11:46:13;101671.03;;;4.69;98.95
11114;BME280;5610;52.154;9.198;2023-01-29T11:49:01;101652.91;;;4.53;99.60
11114;BME280;5610;52.154;9.198;2023-01-29T11:51:51;101655.81;;;4.39;100.00
11114;BME280;5610;52.154;9.198;2023-01-29T11:54:49;101645.03;;;4.50;100.00
11114;BME280;5610;52.154;9.198;2023-01-29T11:57:38;101646.19;;;4.38;100.00
11114;BME280;5610;52.154;9.198;2023-01-29T12:00:26;101633.25;;;4.24;100.00
11114;BME280;5610;52.154;9.198;2023-01-29T12:03:15;101638.88;;;4.06;100.00
11114;BME280;5610;52.154;9.198;2023-01-29T12:06:07;101634.31;;;4.14;100.00
11114;BME280;5610;52.154;9.198;2023-01-29T12:09:00;101635.38;;;4.05;100.00
11114;BME280;5610;52.154;9.198;2023-01-29T12:11:46;101639.00;;;3.98;100.00
11114;BME280;5610;52.154;9.198;2023-01-29T12:14:32;101628.47;;;3.98;100.00
11114;BME280;5610;52.154;9.198;2023-01-29T12:17:21;101619.00;;;3.88;100.00
11114;BME280;5610;52.154;9.198;2023-01-29T12:20:10;101620.69;;;3.91;100.00
11114;BME280;5610;52.154;9.198;2023-01-29T12:23:05;101616.47;;;4.27;100.00
11114;BME280;5610;52.154;9.198;2023-01-29T12:25:59;101607.34;;;4.45;100.00
11114;BME280;5610;52.154;9.198;2023-01-29T12:28:53;101595.59;;;4.58;100.00
11114;BME280;5610;52.154;9.198;2023-01-29T12:31:46;101584.50;;;4.82;100.00
11114;BME280;5610;52.154;9.198;2023-01-29T12:34:40;101575.94;;;5.10;100.00
11114;BME280;5610;52.154;9.198;2023-01-29T12:37:37;101576.84;;;5.09;100.00
11114;BME280;5610;52.154;9.198;2023-01-29T12:40:28;101567.84;;;4.79;100.00
11114;BME280;5610;52.154;9.198;2023-01-29T12:43:17;101566.38;;;4.67;100.00
11114;BME280;5610;52.154;9.198;2023-01-29T12:46:05;101551.44;;;4.66;100.00
11114;BME280;5610;52.154;9.198;2023-01-29T12:48:55;101552.88;;;4.40;100.00
11114;BME280;5610;52.154;9.198;2023-01-29T12:51:48;101538.44;;;4.17;100.00
11114;BME280;5610;52.154;9.198;2023-01-29T12:54:38;101540.19;;;4.18;100.00
11114;BME280;5610;52.154;9.198;2023-01-29T12:57:33;101533.28;;;4.10;100.00
11114;BME280;5610;52.154;9.198;2023-01-29T13:00:23;101534.94;;;4.16;100.00
11114;BME280;5610;52.154;9.198;2023-01-29T13:03:15;101543.69;;;4.18;100.00
11114;BME280;5610;52.154;9.198;2023-01-29T13:06:08;101541.78;;;4.25;100.00
11114;BME280;5610;52.154;9.198;2023-01-29T13:08:56;101552.94;;;4.37;100.00
11114;BME280;5610;52.154;9.198;2023-01-29T13:11:46;101552.66;;;4.51;100.00
11114;BME280;5610;52.154;9.198;2023-01-29T13:14:43;101541.06;;;4.58;100.00
11114;BME280;5610;52.154;9.198;2023-01-29T13:17:32;101534.84;;;4.61;100.00
11114;BME280;5610;52.154;9.198;2023-01-29T13:20:24;101542.97;;;4.50;100.00
11114;BME280;5610;52.154;9.198;2023-01-29T13:23:16;101539.09;;;4.66;100.00
11114;BME280;5610;52.154;9.198;2023-01-29T13:26:04;101538.97;;;4.73;100.00
11114;BME280;5610;52.154;9.198;2023-01-29T13:28:50;101537.88;;;4.81;100.00
11114;BME280;5610;52.154;9.198;2023-01-29T13:31:37;101539.72;;;4.78;100.00
11114;BME280;5610;52.154;9.198;2023-01-29T13:34:25;101527.09;;;4.53;100.00
11114;BME280;5610;52.154;9.198;2023-01-29T13:37:25;101523.34;;;4.23;100.00
11114;BME280;5610;52.154;9.198;2023-01-29T13:40:18;101510.16;;;3.80;100.00
11114;BME280;5610;52.154;9.198;2023-01-29T13:43:17;101502.91;;;3.91;100.00
11114;BME280;5610;52.154;9.198;2023-01-29T13:46:07;101521.25;;;3.97;100.00
11114;BME280;5610;52.154;9.198;2023-01-29T13:48:55;101505.47;;;3.94;100.00
11114;BME280;5610;52.154;9.198;2023-01-29T13:51:44;101504.44;;;4.01;100.00
11114;BME280;5610;52.154;9.198;2023-01-29T13:54:29;101510.81;;;3.91;100.00
11114;BME280;5610;52.154;9.198;2023-01-29T13:57:34;101490.69;;;3.87;100.00
11114;BME280;5610;52.154;9.198;2023-01-29T14:00:47;101503.84;;;3.87;100.00
11114;BME280;5610;52.154;9.198;2023-01-29T14:03:41;101482.88;;;3.82;100.00
11114;BME280;5610;52.154;9.198;2023-01-29T14:06:46;101481.22;;;3.77;100.00
11114;BME280;5610;52.154;9.198;2023-01-29T14:13:26;101474.78;;;3.92;100.00
11114;BME280;5610;52.154;9.198;2023-01-29T14:16:41;101466.69;;;3.99;100.00
11114;BME280;5610;52.154;9.198;2023-01-29T14:19:27;101477.38;;;3.93;100.00
11114;BME280;5610;52.154;9.198;2023-01-29T14:22:20;101486.72;;;4.09;100.00
11114;BME280;5610;52.154;9.198;2023-01-29T14:25:16;101480.22;;;3.84;100.00
11114;BME280;5610;52.154;9.198;2023-01-29T14:28:04;101469.75;;;3.79;100.00
11114;BME280;5610;52.154;9.198;2023-01-29T14:30:58;101471.81;;;3.64;100.00
11114;BME280;5610;52.154;9.198;2023-01-29T14:33:44;101479.47;;;3.77;100.00
11114;BME280;5610;52.154;9.198;2023-01-29T14:36:38;101467.72;;;3.92;100.00
11114;BME280;5610;52.154;9.198;2023-01-29T14:39:33;101479.94;;;3.98;100.00
11114;BME280;5610;52.154;9.198;2023-01-29T14:42:22;101463.28;;;3.96;100.00
11114;BME280;5610;52.154;9.198;2023-01-29T14:45:21;101456.22;;;3.96;100.00
11114;BME280;5610;52.154;9.198;2023-01-29T14:48:35;101455.53;;;3.88;100.00
11114;BME280;5610;52.154;9.198;2023-01-29T14:51:22;101478.78;;;3.68;100.00
11114;BME280;5610;52.154;9.198;2023-01-29T14:54:17;101457.09;;;3.53;100.00
11114;BME280;5610;52.154;9.198;2023-01-29T14:57:11;101457.03;;;3.56;100.00
11114;BME280;5610;52.154;9.198;2023-01-29T15:00:00;101453.97;;;3.33;100.00
11114;BME280;5610;52.154;9.198;2023-01-29T15:02:50;101458.50;;;3.26;100.00
11114;BME280;5610;52.154;9.198;2023-01-29T15:05:36;101456.03;;;3.17;100.00
11114;BME280;5610;52.154;9.198;2023-01-29T15:08:26;101452.81;;;3.00;100.00